sensor_id;sensor_type;location;lat;lon;timestamp;temperature;humidity
15967;DHT22;15175;48.154;11.534;2024-01-16T00:04:36;-1.20;99.90
15967;DHT22;15175;48.154;11.534;2024-01-16T00:10:38;-1.20;99.90
15967;DHT22;15175;48.154;11.534;2024-01-16T00:16:45;-1.20;99.90
15967;DHT22;15175;48.154;11.534;2024-01-16T00:22:48;-1.20;99.90
15967;DHT22;15175;48.154;11.534;2024-01-16T00:28:50;-1.20;99.90
15967;DHT22;15175;48.154;11.534;2024-01-16T00:34:54;-1.20;99.90
15967;DHT22;15175;48.154;11.534;2024-01-16T00:40:56;-1.20;99.90
15967;DHT22;15175;48.154;11.534;2024-01-16T00:46:58;-1.30;99.90
15967;DHT22;15175;48.154;11.534;2024-01-16T00:53:03;-1.30;99.90
15967;DHT22;15175;48.154;11.534;2024-01-16T00:59:06;-1.30;99.90
15967;DHT22;15175;48.154;11.534;2024-01-16T01:05:08;-1.30;99.90
15967;DHT22;15175;48.154;11.534;2024-01-16T01:11:12;-1.30;99.90
15967;DHT22;15175;48.154;11.534;2024-01-16T01:17:14;-1.40;99.90
15967;DHT22;15175;48.154;11.534;2024-01-16T01:23:17;-1.40;99.90
15967;DHT22;15175;48.154;11.534;2024-01-16T01:29:21;-1.40;99.90
15967;DHT22;15175;48.154;11.534;2024-01-16T01:35:23;-1.50;99.90
15967;DHT22;15175;48.154;11.534;2024-01-16T01:41:25;-1.50;99.90
15967;DHT22;15175;48.154;11.534;2024-01-16T01:47:30;-1.50;99.90
15967;DHT22;15175;48.154;11.534;2024-01-16T01:53:33;-1.50;99.90
15967;DHT22;15175;48.154;11.534;2024-01-16T01:59:36;-1.50;99.90
15967;DHT22;15175;48.154;11.534;2024-01-16T02:05:41;-1.40;99.90
15967;DHT22;15175;48.154;11.534;2024-01-16T02:11:44;-1.40;99.90
15967;DHT22;15175;48.154;11.534;2024-01-16T02:17:47;-1.40;99.90
15967;DHT22;15175;48.154;11.534;2024-01-16T02:23:51;-1.40;99.90
15967;DHT22;15175;48.154;11.534;2024-01-16T02:29:53;-1.40;99.90
15967;DHT22;15175;48.154;11.534;2024-01-16T02:35:56;-1.40;99.90
15967;DHT22;15175;48.154;11.534;2024-01-16T02:41:59;-1.40;99.90
15967;DHT22;15175;48.154;11.534;2024-01-16T02:48:02;-1.50;99.90
15967;DHT22;15175;48.154;11.534;2024-01-16T02:54:05;-1.60;99.90
15967;DHT22;15175;48.154;11.534;2024-01-16T03:00:10;-1.60;99.90
15967;DHT22;15175;48.154;11.534;2024-01-16T03:06:21;-1.60;99.90
15967;DHT22;15175;48.154;11.534;2024-01-16T03:12:24;-1.70;99.90
15967;DHT22;15175;48.154;11.534;2024-01-16T03:18:28;-1.70;99.90
15967;DHT22;15175;48.154;11.534;2024-01-16T03:24:30;-1.80;99.90
15967;DHT22;15175;48.154;11.534;2024-01-16T03:30:32;-1.80;99.90
15967;DHT22;15175;48.154;11.534;2024-01-16T03:36:36;-1.90;99.90
15967;DHT22;15175;48.154;11.534;2024-01-16T03:42:38;-1.90;99.90
15967;DHT22;15175;48.154;11.534;2024-01-16T03:48:40;-2.00;99.90
15967;DHT22;15175;48.154;11.534;2024-01-16T03:54:44;-2.00;99.90
15967;DHT22;15175;48.154;11.534;2024-01-16T04:00:47;-2.10;99.90
15967;DHT22;15175;48.154;11.534;2024-01-16T04:06:51;-2.10;99.90
15967;DHT22;15175;48.154;11.534;2024-01-16T04:12:55;-2.10;99.90
15967;DHT22;15175;48.154;11.534;2024-01-16T04:18:57;-2.10;99.90
15967;DHT22;15175;48.154;11.534;2024-01-16T04:25:00;-2.10;99.90
15967;DHT22;15175;48.154;11.534;2024-01-16T04:31:04;-2.10;99.90
15967;DHT22;15175;48.154;11.534;2024-01-16T04:37:06;-2.00;99.90
15967;DHT22;15175;48.154;11.534;2024-01-16T04:43:08;-2.00;99.90
15967;DHT22;15175;48.154;11.534;2024-01-16T04:49:12;-2.00;99.90
15967;DHT22;15175;48.154;11.534;2024-01-16T04:55:14;-2.10;99.90
15967;DHT22;15175;48.154;11.534;2024-01-16T05:01:16;-2.10;99.90
15967;DHT22;15175;48.154;11.534;2024-01-16T05:07:20;-2.10;99.90
15967;DHT22;15175;48.154;11.534;2024-01-16T05:13:25;-2.10;99.90
15967;DHT22;15175;48.154;11.534;2024-01-16T05:19:27;-2.20;99.90
15967;DHT22;15175;48.154;11.534;2024-01-16T05:25:31;-2.20;99.90
15967;DHT22;15175;48.154;11.534;2024-01-16T05:31:33;-2.30;99.90
15967;DHT22;15175;48.154;11.534;2024-01-16T05:37:40;-2.30;99.90
15967;DHT22;15175;48.154;11.534;2024-01-16T05:43:44;-2.30;99.90
15967;DHT22;15175;48.154;11.534;2024-01-16T05:49:47;-2.30;99.90
15967;DHT22;15175;48.154;11.534;2024-01-16T05:55:49;-2.40;99.90
15967;DHT22;15175;48.154;11.534;2024-01-16T06:01:53;-2.40;99.90
15967;DHT22;15175;48.154;11.534;2024-01-16T06:07:55;-2.40;99.90
15967;DHT22;15175;48.154;11.534;2024-01-16T06:13:57;-2.40;99.90
15967;DHT22;15175;48.154;11.534;2024-01-16T06:20:01;-2.30;99.90
15967;DHT22;15175;48.154;11.534;2024-01-16T06:26:07;-2.30;99.90
15967;DHT22;15175;48.154;11.534;2024-01-16T06:32:10;-2.30;99.90
15967;DHT22;15175;48.154;11.534;2024-01-16T06:38:13;-2.30;99.90
15967;DHT22;15175;48.154;11.534;2024-01-16T06:44:15;-2.30;99.90
15967;DHT22;15175;48.154;11.534;2024-01-16T06:50:18;-2.30;99.90
15967;DHT22;15175;48.154;11.534;2024-01-16T06:56:22;-2.30;99.90
15967;DHT22;15175;48.154;11.534;2024-01-16T07:02:25;-2.30;99.90
15967;DHT22;15175;48.154;11.534;2024-01-16T07:08:27;-2.30;99.90
15967;DHT22;15175;48.154;11.534;2024-01-16T07:14:32;-1.90;99.90
15967;DHT22;15175;48.154;11.534;2024-01-16T07:20:34;-2.20;99.90
15967;DHT22;15175;48.154;11.534;2024-01-16T07:26:38;-2.20;99.90
15967;DHT22;15175;48.154;11.534;2024-01-16T07:32:43;-2.10;99.90
15967;DHT22;15175;48.154;11.534;2024-01-16T07:38:45;-2.00;99.90
15967;DHT22;15175;48.154;11.534;2024-01-16T07:44:48;-1.90;99.90
15967;DHT22;15175;48.154;11.534;2024-01-16T07:50:52;-1.80;99.90
15967;DHT22;15175;48.154;11.534;2024-01-16T07:56:54;-1.70;99.90
15967;DHT22;15175;48.154;11.534;2024-01-16T08:02:56;-1.70;99.90
15967;DHT22;15175;48.154;11.534;2024-01-16T08:09:00;-1.80;99.90
15967;DHT22;15175;48.154;11.534;2024-01-16T08:15:03;-1.70;99.90
15967;DHT22;15175;48.154;11.534;2024-01-16T08:21:06;-1.70;99.90
15967;DHT22;15175;48.154;11.534;2024-01-16T08:27:10;-1.60;99.90
15967;DHT22;15175;48.154;11.534;2024-01-16T08:33:12;-1.60;99.90
15967;DHT22;15175;48.154;11.534;2024-01-16T08:39:15;-1.50;99.90
15967;DHT22;15175;48.154;11.534;2024-01-16T08:45:20;-1.40;99.90
15967;DHT22;15175;48.154;11.534;2024-01-16T08:51:22;-1.30;99.90
15967;DHT22;15175;48.154;11.534;2024-01-16T08:57:24;-1.20;99.90
15967;DHT22;15175;48.154;11.534;2024-01-16T09:03:28;-1.10;99.90
15967;DHT22;15175;48.154;11.534;2024-01-16T09:09:30;-1.10;99.90
15967;DHT22;15175;48.154;11.534;2024-01-16T09:15:33;-1.00;99.90
15967;DHT22;15175;48.154;11.534;2024-01-16T09:21:37;-0.90;99.90
15967;DHT22;15175;48.154;11.534;2024-01-16T09:27:40;-0.70;99.90
15967;DHT22;15175;48.154;11.534;2024-01-16T09:33:42;-0.50;99.90
15967;DHT22;15175;48.154;11.534;2024-01-16T09:39:45;-0.40;99.90
15967;DHT22;15175;48.154;11.534;2024-01-16T09:45:49;-0.30;99.90
15967;DHT22;15175;48.154;11.534;2024-01-16T09:51:53;-0.20;99.90
15967;DHT22;15175;48.154;11.534;2024-01-16T09:57:57;-0.10;99.90
15967;DHT22;15175;48.154;11.534;2024-01-16T10:04:00;0.00;99.90
15967;DHT22;15175;48.154;11.534;2024-01-16T10:10:03;0.00;99.90
15967;DHT22;15175;48.154;11.534;2024-01-16T10:16:06;0.10;99.90
15967;DHT22;15175;48.154;11.534;2024-01-16T10:22:09;0.20;99.90
15967;DHT22;15175;48.154;11.534;2024-01-16T10:28:11;0.30;99.90
15967;DHT22;15175;48.154;11.534;2024-01-16T10:34:21;0.20;99.90
15967;DHT22;15175;48.154;11.534;2024-01-16T10:40:24;0.20;99.90
15967;DHT22;15175;48.154;11.534;2024-01-16T10:46:27;0.20;99.90
15967;DHT22;15175;48.154;11.534;2024-01-16T10:52:33;0.30;99.90
15967;DHT22;15175;48.154;11.534;2024-01-16T10:58:36;0.30;99.90
15967;DHT22;15175;48.154;11.534;2024-01-16T11:04:41;0.40;99.90
15967;DHT22;15175;48.154;11.534;2024-01-16T11:10:47;0.60;99.90
15967;DHT22;15175;48.154;11.534;2024-01-16T11:16:51;0.60;99.90
15967;DHT22;15175;48.154;11.534;2024-01-16T11:22:54;0.70;99.90
15967;DHT22;15175;48.154;11.534;2024-01-16T11:35:41;0.90;99.90
15967;DHT22;15175;48.154;11.534;2024-01-16T11:41:51;1.10;99.90
15967;DHT22;15175;48.154;11.534;2024-01-16T11:48:12;1.00;99.90
15967;DHT22;15175;48.154;11.534;2024-01-16T11:54:21;0.90;99.90
15967;DHT22;15175;48.154;11.534;2024-01-16T12:00:28;1.10;99.90
15967;DHT22;15175;48.154;11.534;2024-01-16T12:06:35;1.10;99.90
15967;DHT22;15175;48.154;11.534;2024-01-16T12:12:38;1.10;99.90
15967;DHT22;15175;48.154;11.534;2024-01-16T12:18:40;1.10;99.90
15967;DHT22;15175;48.154;11.534;2024-01-16T12:24:44;1.10;99.90
15967;DHT22;15175;48.154;11.534;2024-01-16T12:30:49;1.20;99.90
15967;DHT22;15175;48.154;11.534;2024-01-16T12:37:04;1.20;99.90
15967;DHT22;15175;48.154;11.534;2024-01-16T12:43:09;1.20;99.90
15967;DHT22;15175;48.154;11.534;2024-01-16T12:49:11;1.30;99.90
15967;DHT22;15175;48.154;11.534;2024-01-16T12:55:14;1.40;99.90
15967;DHT22;15175;48.154;11.534;2024-01-16T13:01:25;1.60;99.90
15967;DHT22;15175;48.154;11.534;2024-01-16T13:07:29;1.70;99.90
15967;DHT22;15175;48.154;11.534;2024-01-16T13:13:34;1.70;99.90
15967;DHT22;15175;48.154;11.534;2024-01-16T13:19:37;1.80;99.90
15967;DHT22;15175;48.154;11.534;2024-01-16T13:25:43;1.80;99.90
15967;DHT22;15175;48.154;11.534;2024-01-16T13:31:46;1.80;99.90
15967;DHT22;15175;48.154;11.534;2024-01-16T13:37:50;1.70;99.90
15967;DHT22;15175;48.154;11.534;2024-01-16T13:43:52;1.70;99.90
15967;DHT22;15175;48.154;11.534;2024-01-16T13:49:54;1.60;99.90
15967;DHT22;15175;48.154;11.534;2024-01-16T13:55:58;1.70;99.90
15967;DHT22;15175;48.154;11.534;2024-01-16T14:02:02;1.70;99.90
15967;DHT22;15175;48.154;11.534;2024-01-16T14:08:05;1.70;99.90
15967;DHT22;15175;48.154;11.534;2024-01-16T14:14:11;1.70;99.90
15967;DHT22;15175;48.154;11.534;2024-01-16T14:20:15;1.70;99.90
15967;DHT22;15175;48.154;11.534;2024-01-16T14:26:18;1.70;99.90
15967;DHT22;15175;48.154;11.534;2024-01-16T14:32:22;1.80;99.90
15967;DHT22;15175;48.154;11.534;2024-01-16T14:38:24;1.80;99.90
15967;DHT22;15175;48.154;11.534;2024-01-16T14:44:27;1.70;99.90
15967;DHT22;15175;48.154;11.534;2024-01-16T14:50:30;1.70;99.90
15967;DHT22;15175;48.154;11.534;2024-01-16T14:56:33;1.60;99.90
15967;DHT22;15175;48.154;11.534;2024-01-16T15:02:35;1.60;99.90
15967;DHT22;15175;48.154;11.534;2024-01-16T15:08:39;1.50;99.90
15967;DHT22;15175;48.154;11.534;2024-01-16T15:14:41;1.40;99.90
15967;DHT22;15175;48.154;11.534;2024-01-16T15:20:43;1.40;99.90
15967;DHT22;15175;48.154;11.534;2024-01-16T15:26:47;1.30;99.90
15967;DHT22;15175;48.154;11.534;2024-01-16T15:32:49;1.20;99.90
15967;DHT22;15175;48.154;11.534;2024-01-16T15:38:52;1.10;99.90
15967;DHT22;15175;48.154;11.534;2024-01-16T15:44:56;1.10;99.90
15967;DHT22;15175;48.154;11.534;2024-01-16T15:50:58;1.00;99.90
15967;DHT22;15175;48.154;11.534;2024-01-16T15:57:01;1.00;99.90
15967;DHT22;15175;48.154;11.534;2024-01-16T16:03:04;0.90;99.90
15967;DHT22;15175;48.154;11.534;2024-01-16T16:09:07;0.80;99.90
15967;DHT22;15175;48.154;11.534;2024-01-16T16:15:09;0.80;99.90
15967;DHT22;15175;48.154;11.534;2024-01-16T16:21:13;0.80;99.90
15967;DHT22;15175;48.154;11.534;2024-01-16T16:27:22;0.80;99.90
15967;DHT22;15175;48.154;11.534;2024-01-16T16:33:24;0.80;99.90
15967;DHT22;15175;48.154;11.534;2024-01-16T16:39:28;0.60;99.90
15967;DHT22;15175;48.154;11.534;2024-01-16T16:45:30;0.60;99.90
15967;DHT22;15175;48.154;11.534;2024-01-16T16:51:33;0.50;99.90
15967;DHT22;15175;48.154;11.534;2024-01-16T16:57:43;0.40;99.90
15967;DHT22;15175;48.154;11.534;2024-01-16T17:03:47;0.20;99.90
15967;DHT22;15175;48.154;11.534;2024-01-16T17:09:50;0.20;99.90
15967;DHT22;15175;48.154;11.534;2024-01-16T17:15:54;0.10;99.90
15967;DHT22;15175;48.154;11.534;2024-01-16T17:21:56;0.00;99.90
15967;DHT22;15175;48.154;11.534;2024-01-16T17:27:59;-0.10;99.90
15967;DHT22;15175;48.154;11.534;2024-01-16T17:34:03;-0.10;99.90
15967;DHT22;15175;48.154;11.534;2024-01-16T17:40:07;-0.20;99.90
15967;DHT22;15175;48.154;11.534;2024-01-16T17:46:13;-0.10;99.90
15967;DHT22;15175;48.154;11.534;2024-01-16T17:52:16;-0.10;99.90
15967;DHT22;15175;48.154;11.534;2024-01-16T17:58:19;-0.20;99.90
15967;DHT22;15175;48.154;11.534;2024-01-16T18:04:22;-0.20;99.90
15967;DHT22;15175;48.154;11.534;2024-01-16T18:10:26;-0.10;99.90
15967;DHT22;15175;48.154;11.534;2024-01-16T18:16:31;-0.20;99.90
15967;DHT22;15175;48.154;11.534;2024-01-16T18:22:33;-0.30;99.90
15967;DHT22;15175;48.154;11.534;2024-01-16T18:28:37;-0.30;99.90
15967;DHT22;15175;48.154;11.534;2024-01-16T18:34:40;-0.30;99.90
15967;DHT22;15175;48.154;11.534;2024-01-16T18:40:44;-0.40;99.90
15967;DHT22;15175;48.154;11.534;2024-01-16T18:46:47;-0.50;99.90
15967;DHT22;15175;48.154;11.534;2024-01-16T18:52:50;-0.50;99.90
15967;DHT22;15175;48.154;11.534;2024-01-16T18:58:54;-0.50;99.90
15967;DHT22;15175;48.154;11.534;2024-01-16T19:04:58;-0.60;99.90
15967;DHT22;15175;48.154;11.534;2024-01-16T19:11:00;-0.70;99.90
15967;DHT22;15175;48.154;11.534;2024-01-16T19:17:03;-0.80;99.90
15967;DHT22;15175;48.154;11.534;2024-01-16T19:23:07;-0.80;99.90
15967;DHT22;15175;48.154;11.534;2024-01-16T19:29:10;-0.90;99.90
15967;DHT22;15175;48.154;11.534;2024-01-16T19:35:13;-0.90;99.90
15967;DHT22;15175;48.154;11.534;2024-01-16T19:41:18;-1.00;99.90
15967;DHT22;15175;48.154;11.534;2024-01-16T19:47:21;-1.10;99.90
15967;DHT22;15175;48.154;11.534;2024-01-16T19:53:24;-1.10;99.90
15967;DHT22;15175;48.154;11.534;2024-01-16T19:59:28;-1.20;99.90
15967;DHT22;15175;48.154;11.534;2024-01-16T20:05:33;-1.20;99.90
15967;DHT22;15175;48.154;11.534;2024-01-16T20:11:38;-1.30;99.90
15967;DHT22;15175;48.154;11.534;2024-01-16T20:17:43;-1.40;99.90
15967;DHT22;15175;48.154;11.534;2024-01-16T20:23:45;-1.40;99.90
15967;DHT22;15175;48.154;11.534;2024-01-16T20:29:47;-1.50;99.90
15967;DHT22;15175;48.154;11.534;2024-01-16T20:35:51;-1.60;99.90
15967;DHT22;15175;48.154;11.534;2024-01-16T20:41:54;-1.70;99.90
15967;DHT22;15175;48.154;11.534;2024-01-16T20:47:56;-1.70;99.90
15967;DHT22;15175;48.154;11.534;2024-01-16T20:54:00;-1.70;99.90
15967;DHT22;15175;48.154;11.534;2024-01-16T21:00:04;-1.80;99.90
15967;DHT22;15175;48.154;11.534;2024-01-16T21:06:12;-1.80;99.90
15967;DHT22;15175;48.154;11.534;2024-01-16T21:12:16;-1.90;99.90
15967;DHT22;15175;48.154;11.534;2024-01-16T21:18:18;-2.00;99.90
15967;DHT22;15175;48.154;11.534;2024-01-16T21:24:20;-2.00;99.90
15967;DHT22;15175;48.154;11.534;2024-01-16T21:30:24;-2.10;99.90
15967;DHT22;15175;48.154;11.534;2024-01-16T21:36:27;-2.20;99.90
15967;DHT22;15175;48.154;11.534;2024-01-16T21:42:29;-2.20;99.90
15967;DHT22;15175;48.154;11.534;2024-01-16T21:48:33;-2.30;99.90
15967;DHT22;15175;48.154;11.534;2024-01-16T21:54:35;-2.30;99.90
15967;DHT22;15175;48.154;11.534;2024-01-16T22:00:37;-2.30;99.90
15967;DHT22;15175;48.154;11.534;2024-01-16T22:06:41;-2.30;99.90
15967;DHT22;15175;48.154;11.534;2024-01-16T22:12:45;-2.30;99.90
15967;DHT22;15175;48.154;11.534;2024-01-16T22:18:47;-2.30;99.90
15967;DHT22;15175;48.154;11.534;2024-01-16T22:24:51;-2.30;99.90
15967;DHT22;15175;48.154;11.534;2024-01-16T22:30:53;-2.40;99.90
15967;DHT22;15175;48.154;11.534;2024-01-16T22:36:56;-2.40;99.90
15967;DHT22;15175;48.154;11.534;2024-01-16T22:43:00;-2.50;99.90
15967;DHT22;15175;48.154;11.534;2024-01-16T22:49:02;-2.50;99.90
15967;DHT22;15175;48.154;11.534;2024-01-16T22:55:05;-2.50;99.90
15967;DHT22;15175;48.154;11.534;2024-01-16T23:01:08;-2.60;99.90
15967;DHT22;15175;48.154;11.534;2024-01-16T23:07:13;-2.60;99.90
15967;DHT22;15175;48.154;11.534;2024-01-16T23:13:17;-2.60;99.90
15967;DHT22;15175;48.154;11.534;2024-01-16T23:19:20;-2.60;99.90
15967;DHT22;15175;48.154;11.534;2024-01-16T23:25:23;-2.60;99.90
15967;DHT22;15175;48.154;11.534;2024-01-16T23:31:27;-2.70;99.90
15967;DHT22;15175;48.154;11.534;2024-01-16T23:37:30;-2.70;99.90
15967;DHT22;15175;48.154;11.534;2024-01-16T23:43:32;-2.80;99.90
15967;DHT22;15175;48.154;11.534;2024-01-16T23:49:35;-2.90;99.90
15967;DHT22;15175;48.154;11.534;2024-01-16T23:55:39;-2.90;99.90
